Aviation Digital Data Service (ADDS)

Output produced by METARs form (0907 UTC 20 February 2018)
found at http://www.aviationweather.gov/adds/metars/
 
METAR text: LFLP 200900Z AUTO 27005KT 230V300 CAVOK 03/M00 Q1011 NOSIG
Conditions at: LFLP (ANNECY/MEYTHET , FR) observed 0900 UTC 20 February 2018
Temperature: 3.0°C (37°F)
Dewpoint: 0.0°C (32°F) [RH = 81%]
Pressure (altimeter): 29.85 inches Hg (1011.0 mb)
Winds: from the W (270 degrees) at 6 MPH (5 knots; 2.6 m/s)
Visibility: 6 or more miles (10+ km)
Ceiling: ceiling and visibility are OK
Clouds: unknown
Weather: no significant weather observed at this time

Forecast for: LFLP (ANNECY/MEYTHET , FR)
Text: TAF LFLP 200800Z 2009/2109 VRB02KT 9999 SCT060
Forecast period: 0900 UTC 20 February 2018 to 0900 UTC 21 February 2018
Forecast type: FROM: standard forecast or significant change
Winds: variable direction winds at 2 MPH (2 knots; 1.0 m/s)
Visibility: 6 or more miles (10+ km)
Clouds: scattered clouds at 6000 feet AGL
Weather: no significant weather forecast for this period
Text: BECMG 2009/2011 35012KT
Forecast period: 0900 UTC 20 February 2018 to 0900 UTC 21 February 2018
Forecast type: BECOMING: Conditions expected to become as follows by 1100 UTC 20 February 2018
Winds: from the N (350 degrees) at 14 MPH (12 knots; 6.2 m/s)
Visibility: 6 or more miles (10+ km)
Clouds: scattered clouds at 6000 feet AGL
Weather: no significant weather forecast for this period